sensor_id;sensor_type;location;lat;lon;timestamp;P1;durP1;ratioP1;P2;durP2;ratioP2
16963;SDS011;8598;50.508;10.436;2023-05-02T00:02:01;12.77;;;8.17;;
16963;SDS011;8598;50.508;10.436;2023-05-02T00:04:28;11.57;;;6.97;;
16963;SDS011;8598;50.508;10.436;2023-05-02T00:06:54;10.70;;;7.70;;
16963;SDS011;8598;50.508;10.436;2023-05-02T00:09:22;11.57;;;7.40;;
16963;SDS011;8598;50.508;10.436;2023-05-02T00:11:49;11.03;;;7.47;;
16963;SDS011;8598;50.508;10.436;2023-05-02T00:14:16;9.97;;;7.13;;
16963;SDS011;8598;50.508;10.436;2023-05-02T00:16:43;11.73;;;8.17;;
16963;SDS011;8598;50.508;10.436;2023-05-02T00:19:10;12.00;;;8.53;;
16963;SDS011;8598;50.508;10.436;2023-05-02T00:21:36;11.13;;;8.00;;
16963;SDS011;8598;50.508;10.436;2023-05-02T00:24:03;9.77;;;7.87;;
16963;SDS011;8598;50.508;10.436;2023-05-02T00:26:32;9.70;;;7.70;;
16963;SDS011;8598;50.508;10.436;2023-05-02T00:28:58;9.10;;;7.13;;
16963;SDS011;8598;50.508;10.436;2023-05-02T00:31:25;9.93;;;8.00;;
16963;SDS011;8598;50.508;10.436;2023-05-02T00:33:52;9.10;;;7.57;;
16963;SDS011;8598;50.508;10.436;2023-05-02T00:36:18;12.50;;;7.37;;
16963;SDS011;8598;50.508;10.436;2023-05-02T00:38:45;10.40;;;7.73;;
16963;SDS011;8598;50.508;10.436;2023-05-02T00:41:12;11.10;;;8.17;;
16963;SDS011;8598;50.508;10.436;2023-05-02T00:43:40;11.07;;;8.30;;
16963;SDS011;8598;50.508;10.436;2023-05-02T00:46:06;10.07;;;7.70;;
16963;SDS011;8598;50.508;10.436;2023-05-02T00:48:33;11.80;;;8.07;;
16963;SDS011;8598;50.508;10.436;2023-05-02T00:51:01;11.33;;;7.80;;
16963;SDS011;8598;50.508;10.436;2023-05-02T00:53:30;11.30;;;7.83;;
16963;SDS011;8598;50.508;10.436;2023-05-02T00:55:57;13.00;;;7.83;;
16963;SDS011;8598;50.508;10.436;2023-05-02T00:58:24;9.60;;;7.53;;
16963;SDS011;8598;50.508;10.436;2023-05-02T01:00:58;10.07;;;7.40;;
16963;SDS011;8598;50.508;10.436;2023-05-02T01:03:34;11.77;;;7.83;;
16963;SDS011;8598;50.508;10.436;2023-05-02T01:06:09;7.90;;;6.63;;
16963;SDS011;8598;50.508;10.436;2023-05-02T01:08:46;10.63;;;8.00;;
16963;SDS011;8598;50.508;10.436;2023-05-02T01:11:22;9.37;;;7.30;;
16963;SDS011;8598;50.508;10.436;2023-05-02T01:13:55;12.67;;;8.37;;
16963;SDS011;8598;50.508;10.436;2023-05-02T01:16:28;10.23;;;7.17;;
16963;SDS011;8598;50.508;10.436;2023-05-02T01:18:56;9.37;;;7.50;;
16963;SDS011;8598;50.508;10.436;2023-05-02T01:21:25;10.10;;;7.33;;
16963;SDS011;8598;50.508;10.436;2023-05-02T01:23:56;10.60;;;8.13;;
16963;SDS011;8598;50.508;10.436;2023-05-02T01:26:29;9.30;;;7.07;;
16963;SDS011;8598;50.508;10.436;2023-05-02T01:29:02;10.43;;;7.97;;
16963;SDS011;8598;50.508;10.436;2023-05-02T01:31:33;11.03;;;7.57;;
16963;SDS011;8598;50.508;10.436;2023-05-02T01:34:01;10.97;;;7.20;;
16963;SDS011;8598;50.508;10.436;2023-05-02T01:36:31;9.97;;;7.77;;
16963;SDS011;8598;50.508;10.436;2023-05-02T01:39:00;13.47;;;8.33;;
16963;SDS011;8598;50.508;10.436;2023-05-02T01:41:28;11.87;;;8.10;;
16963;SDS011;8598;50.508;10.436;2023-05-02T01:43:56;16.17;;;8.60;;
16963;SDS011;8598;50.508;10.436;2023-05-02T01:46:26;10.60;;;7.80;;
16963;SDS011;8598;50.508;10.436;2023-05-02T01:48:57;10.80;;;7.57;;
16963;SDS011;8598;50.508;10.436;2023-05-02T01:51:27;10.80;;;7.60;;
16963;SDS011;8598;50.508;10.436;2023-05-02T01:53:57;20.10;;;8.50;;
16963;SDS011;8598;50.508;10.436;2023-05-02T01:56:26;10.57;;;7.43;;
16963;SDS011;8598;50.508;10.436;2023-05-02T01:58:56;12.33;;;8.50;;
16963;SDS011;8598;50.508;10.436;2023-05-02T02:01:24;10.17;;;7.73;;
16963;SDS011;8598;50.508;10.436;2023-05-02T02:03:55;11.77;;;8.17;;
16963;SDS011;8598;50.508;10.436;2023-05-02T02:06:23;10.53;;;8.20;;
16963;SDS011;8598;50.508;10.436;2023-05-02T02:08:51;10.90;;;7.63;;
16963;SDS011;8598;50.508;10.436;2023-05-02T02:11:20;10.53;;;7.60;;
16963;SDS011;8598;50.508;10.436;2023-05-02T02:13:52;10.87;;;8.03;;
16963;SDS011;8598;50.508;10.436;2023-05-02T02:16:29;9.57;;;7.73;;
16963;SDS011;8598;50.508;10.436;2023-05-02T02:18:58;10.83;;;7.87;;
16963;SDS011;8598;50.508;10.436;2023-05-02T02:21:30;11.17;;;8.60;;
16963;SDS011;8598;50.508;10.436;2023-05-02T02:24:00;10.30;;;7.93;;
16963;SDS011;8598;50.508;10.436;2023-05-02T02:26:29;14.37;;;8.30;;
16963;SDS011;8598;50.508;10.436;2023-05-02T02:28:55;12.03;;;8.93;;
16963;SDS011;8598;50.508;10.436;2023-05-02T02:31:22;11.33;;;8.57;;
16963;SDS011;8598;50.508;10.436;2023-05-02T02:33:50;10.50;;;7.70;;
16963;SDS011;8598;50.508;10.436;2023-05-02T02:36:18;11.20;;;7.77;;
16963;SDS011;8598;50.508;10.436;2023-05-02T02:38:53;10.30;;;7.97;;
16963;SDS011;8598;50.508;10.436;2023-05-02T02:41:26;10.23;;;7.47;;
16963;SDS011;8598;50.508;10.436;2023-05-02T02:43:59;11.23;;;7.97;;
16963;SDS011;8598;50.508;10.436;2023-05-02T02:46:33;10.43;;;7.47;;
16963;SDS011;8598;50.508;10.436;2023-05-02T02:49:14;12.87;;;7.97;;
16963;SDS011;8598;50.508;10.436;2023-05-02T02:51:52;11.63;;;7.87;;
16963;SDS011;8598;50.508;10.436;2023-05-02T02:54:27;11.30;;;7.70;;
16963;SDS011;8598;50.508;10.436;2023-05-02T02:56:58;10.97;;;7.20;;
16963;SDS011;8598;50.508;10.436;2023-05-02T02:59:30;10.17;;;8.20;;
16963;SDS011;8598;50.508;10.436;2023-05-02T03:01:59;10.70;;;8.33;;
16963;SDS011;8598;50.508;10.436;2023-05-02T03:04:30;10.00;;;7.17;;
16963;SDS011;8598;50.508;10.436;2023-05-02T03:06:59;9.53;;;7.83;;
16963;SDS011;8598;50.508;10.436;2023-05-02T03:09:26;11.57;;;8.23;;
16963;SDS011;8598;50.508;10.436;2023-05-02T03:11:57;11.73;;;7.83;;
16963;SDS011;8598;50.508;10.436;2023-05-02T03:14:24;9.87;;;7.60;;
16963;SDS011;8598;50.508;10.436;2023-05-02T03:16:50;12.37;;;7.20;;
16963;SDS011;8598;50.508;10.436;2023-05-02T03:19:17;9.37;;;7.70;;
16963;SDS011;8598;50.508;10.436;2023-05-02T03:21:45;9.40;;;6.77;;
16963;SDS011;8598;50.508;10.436;2023-05-02T03:24:12;8.23;;;6.97;;
16963;SDS011;8598;50.508;10.436;2023-05-02T03:26:39;9.53;;;7.23;;
16963;SDS011;8598;50.508;10.436;2023-05-02T03:29:05;11.30;;;7.40;;
16963;SDS011;8598;50.508;10.436;2023-05-02T03:31:32;11.97;;;8.63;;
16963;SDS011;8598;50.508;10.436;2023-05-02T03:33:59;11.13;;;7.80;;
16963;SDS011;8598;50.508;10.436;2023-05-02T03:36:25;10.30;;;7.23;;
16963;SDS011;8598;50.508;10.436;2023-05-02T03:38:53;9.27;;;6.70;;
16963;SDS011;8598;50.508;10.436;2023-05-02T03:41:20;10.83;;;7.40;;
16963;SDS011;8598;50.508;10.436;2023-05-02T03:43:48;12.70;;;8.73;;
16963;SDS011;8598;50.508;10.436;2023-05-02T03:46:15;16.20;;;11.20;;
16963;SDS011;8598;50.508;10.436;2023-05-02T03:48:42;27.57;;;18.73;;
16963;SDS011;8598;50.508;10.436;2023-05-02T03:51:10;12.90;;;9.47;;
16963;SDS011;8598;50.508;10.436;2023-05-02T03:53:37;11.63;;;8.77;;
16963;SDS011;8598;50.508;10.436;2023-05-02T03:56:05;10.60;;;7.57;;
16963;SDS011;8598;50.508;10.436;2023-05-02T03:58:32;11.33;;;7.97;;
16963;SDS011;8598;50.508;10.436;2023-05-02T04:01:00;11.73;;;8.03;;
16963;SDS011;8598;50.508;10.436;2023-05-02T04:03:27;11.30;;;8.07;;
16963;SDS011;8598;50.508;10.436;2023-05-02T04:05:53;10.83;;;8.33;;
16963;SDS011;8598;50.508;10.436;2023-05-02T04:08:20;12.40;;;8.87;;
16963;SDS011;8598;50.508;10.436;2023-05-02T04:10:49;11.37;;;8.00;;
16963;SDS011;8598;50.508;10.436;2023-05-02T04:13:17;11.07;;;7.70;;
16963;SDS011;8598;50.508;10.436;2023-05-02T04:15:44;11.37;;;8.53;;
16963;SDS011;8598;50.508;10.436;2023-05-02T04:18:10;13.77;;;7.87;;
16963;SDS011;8598;50.508;10.436;2023-05-02T04:20:37;13.37;;;7.80;;
16963;SDS011;8598;50.508;10.436;2023-05-02T04:23:04;9.87;;;7.87;;
16963;SDS011;8598;50.508;10.436;2023-05-02T04:25:30;9.00;;;7.20;;
16963;SDS011;8598;50.508;10.436;2023-05-02T04:27:57;9.90;;;7.43;;
16963;SDS011;8598;50.508;10.436;2023-05-02T04:30:25;11.00;;;7.73;;
16963;SDS011;8598;50.508;10.436;2023-05-02T04:32:51;11.20;;;7.77;;
16963;SDS011;8598;50.508;10.436;2023-05-02T04:35:18;8.63;;;7.03;;
16963;SDS011;8598;50.508;10.436;2023-05-02T04:37:45;10.63;;;7.20;;
16963;SDS011;8598;50.508;10.436;2023-05-02T04:40:12;8.30;;;6.40;;
16963;SDS011;8598;50.508;10.436;2023-05-02T04:42:39;10.97;;;7.30;;
16963;SDS011;8598;50.508;10.436;2023-05-02T04:45:06;10.37;;;7.57;;
16963;SDS011;8598;50.508;10.436;2023-05-02T04:47:34;9.87;;;7.77;;
16963;SDS011;8598;50.508;10.436;2023-05-02T04:50:01;9.87;;;7.03;;
16963;SDS011;8598;50.508;10.436;2023-05-02T04:52:28;9.90;;;7.27;;
16963;SDS011;8598;50.508;10.436;2023-05-02T04:54:55;15.67;;;7.57;;
16963;SDS011;8598;50.508;10.436;2023-05-02T04:57:22;12.70;;;7.80;;
16963;SDS011;8598;50.508;10.436;2023-05-02T04:59:48;9.73;;;7.60;;
16963;SDS011;8598;50.508;10.436;2023-05-02T05:02:15;11.73;;;8.30;;
16963;SDS011;8598;50.508;10.436;2023-05-02T05:04:43;11.30;;;7.90;;
16963;SDS011;8598;50.508;10.436;2023-05-02T05:07:10;10.37;;;7.90;;
16963;SDS011;8598;50.508;10.436;2023-05-02T05:09:37;8.97;;;7.40;;
16963;SDS011;8598;50.508;10.436;2023-05-02T05:12:03;12.00;;;8.10;;
16963;SDS011;8598;50.508;10.436;2023-05-02T05:14:30;14.30;;;8.73;;
16963;SDS011;8598;50.508;10.436;2023-05-02T05:16:57;10.73;;;7.53;;
16963;SDS011;8598;50.508;10.436;2023-05-02T05:19:23;10.27;;;8.20;;
16963;SDS011;8598;50.508;10.436;2023-05-02T05:21:51;9.60;;;7.47;;
16963;SDS011;8598;50.508;10.436;2023-05-02T05:24:18;9.47;;;6.93;;
16963;SDS011;8598;50.508;10.436;2023-05-02T05:26:45;12.63;;;7.77;;
16963;SDS011;8598;50.508;10.436;2023-05-02T05:29:11;8.13;;;7.20;;
16963;SDS011;8598;50.508;10.436;2023-05-02T05:31:38;10.80;;;7.17;;
16963;SDS011;8598;50.508;10.436;2023-05-02T05:34:05;10.17;;;7.67;;
16963;SDS011;8598;50.508;10.436;2023-05-02T05:36:32;16.23;;;7.97;;
16963;SDS011;8598;50.508;10.436;2023-05-02T05:39:00;10.13;;;7.33;;
16963;SDS011;8598;50.508;10.436;2023-05-02T05:41:27;10.50;;;7.77;;
16963;SDS011;8598;50.508;10.436;2023-05-02T05:43:54;10.10;;;7.87;;
16963;SDS011;8598;50.508;10.436;2023-05-02T05:46:21;11.03;;;8.13;;
16963;SDS011;8598;50.508;10.436;2023-05-02T05:48:47;9.97;;;7.27;;
16963;SDS011;8598;50.508;10.436;2023-05-02T05:51:14;11.17;;;7.57;;
16963;SDS011;8598;50.508;10.436;2023-05-02T05:53:41;9.07;;;7.37;;
16963;SDS011;8598;50.508;10.436;2023-05-02T05:56:09;11.40;;;7.67;;
16963;SDS011;8598;50.508;10.436;2023-05-02T05:58:36;14.53;;;7.70;;
16963;SDS011;8598;50.508;10.436;2023-05-02T06:01:03;12.67;;;7.57;;
16963;SDS011;8598;50.508;10.436;2023-05-02T06:03:30;12.07;;;7.67;;
16963;SDS011;8598;50.508;10.436;2023-05-02T06:05:56;10.87;;;7.53;;
16963;SDS011;8598;50.508;10.436;2023-05-02T06:08:23;8.90;;;7.03;;
16963;SDS011;8598;50.508;10.436;2023-05-02T06:10:50;11.90;;;8.27;;
16963;SDS011;8598;50.508;10.436;2023-05-02T06:13:18;9.77;;;7.67;;
16963;SDS011;8598;50.508;10.436;2023-05-02T06:15:44;16.87;;;7.33;;
16963;SDS011;8598;50.508;10.436;2023-05-02T06:18:11;8.70;;;7.50;;
16963;SDS011;8598;50.508;10.436;2023-05-02T06:20:38;9.23;;;7.83;;
16963;SDS011;8598;50.508;10.436;2023-05-02T06:23:05;8.67;;;7.27;;
16963;SDS011;8598;50.508;10.436;2023-05-02T06:25:31;8.97;;;7.70;;
16963;SDS011;8598;50.508;10.436;2023-05-02T06:27:59;9.07;;;7.27;;
16963;SDS011;8598;50.508;10.436;2023-05-02T06:30:27;9.20;;;7.00;;
16963;SDS011;8598;50.508;10.436;2023-05-02T06:32:54;14.70;;;8.13;;
16963;SDS011;8598;50.508;10.436;2023-05-02T06:35:20;13.27;;;8.13;;
16963;SDS011;8598;50.508;10.436;2023-05-02T06:37:47;10.27;;;8.23;;
16963;SDS011;8598;50.508;10.436;2023-05-02T06:40:14;8.83;;;7.40;;
16963;SDS011;8598;50.508;10.436;2023-05-02T06:42:40;11.07;;;8.03;;
16963;SDS011;8598;50.508;10.436;2023-05-02T06:45:07;12.40;;;8.30;;
16963;SDS011;8598;50.508;10.436;2023-05-02T06:47:35;14.87;;;7.97;;
16963;SDS011;8598;50.508;10.436;2023-05-02T06:50:02;11.40;;;8.57;;
16963;SDS011;8598;50.508;10.436;2023-05-02T06:52:29;12.47;;;8.43;;
16963;SDS011;8598;50.508;10.436;2023-05-02T06:54:56;14.10;;;9.30;;
16963;SDS011;8598;50.508;10.436;2023-05-02T06:57:23;10.87;;;7.73;;
16963;SDS011;8598;50.508;10.436;2023-05-02T06:59:50;14.10;;;9.77;;
16963;SDS011;8598;50.508;10.436;2023-05-02T07:02:16;18.53;;;9.93;;
16963;SDS011;8598;50.508;10.436;2023-05-02T07:04:44;11.93;;;8.47;;
16963;SDS011;8598;50.508;10.436;2023-05-02T07:07:11;11.17;;;8.10;;
16963;SDS011;8598;50.508;10.436;2023-05-02T07:09:37;11.37;;;7.20;;
16963;SDS011;8598;50.508;10.436;2023-05-02T07:12:04;10.17;;;6.90;;
16963;SDS011;8598;50.508;10.436;2023-05-02T07:14:31;12.40;;;6.63;;
16963;SDS011;8598;50.508;10.436;2023-05-02T07:16:57;9.43;;;6.60;;
16963;SDS011;8598;50.508;10.436;2023-05-02T07:19:24;12.73;;;7.33;;
16963;SDS011;8598;50.508;10.436;2023-05-02T07:21:52;13.93;;;6.13;;
16963;SDS011;8598;50.508;10.436;2023-05-02T07:24:18;10.80;;;6.17;;
16963;SDS011;8598;50.508;10.436;2023-05-02T07:26:45;7.03;;;5.87;;
16963;SDS011;8598;50.508;10.436;2023-05-02T07:29:12;9.10;;;7.23;;
16963;SDS011;8598;50.508;10.436;2023-05-02T07:31:38;7.80;;;6.23;;
16963;SDS011;8598;50.508;10.436;2023-05-02T07:34:05;8.13;;;6.77;;
16963;SDS011;8598;50.508;10.436;2023-05-02T07:36:32;7.73;;;6.83;;
16963;SDS011;8598;50.508;10.436;2023-05-02T07:39:00;8.67;;;7.77;;
16963;SDS011;8598;50.508;10.436;2023-05-02T07:41:26;11.17;;;6.97;;
16963;SDS011;8598;50.508;10.436;2023-05-02T07:43:53;11.83;;;7.97;;
16963;SDS011;8598;50.508;10.436;2023-05-02T07:46:21;13.37;;;7.10;;
16963;SDS011;8598;50.508;10.436;2023-05-02T07:48:48;8.97;;;6.93;;
16963;SDS011;8598;50.508;10.436;2023-05-02T07:51:14;10.90;;;7.40;;
16963;SDS011;8598;50.508;10.436;2023-05-02T07:53:44;9.40;;;8.23;;
16963;SDS011;8598;50.508;10.436;2023-05-02T07:56:12;11.23;;;7.90;;
16963;SDS011;8598;50.508;10.436;2023-05-02T07:58:38;10.47;;;8.30;;
16963;SDS011;8598;50.508;10.436;2023-05-02T08:01:05;12.33;;;8.33;;
16963;SDS011;8598;50.508;10.436;2023-05-02T08:03:32;11.77;;;9.37;;
16963;SDS011;8598;50.508;10.436;2023-05-02T08:05:58;9.60;;;8.60;;
16963;SDS011;8598;50.508;10.436;2023-05-02T08:08:26;11.57;;;8.57;;
16963;SDS011;8598;50.508;10.436;2023-05-02T08:10:52;11.57;;;9.03;;
16963;SDS011;8598;50.508;10.436;2023-05-02T08:13:20;12.17;;;9.07;;
16963;SDS011;8598;50.508;10.436;2023-05-02T08:15:47;11.50;;;9.20;;
16963;SDS011;8598;50.508;10.436;2023-05-02T08:18:13;13.43;;;9.67;;
16963;SDS011;8598;50.508;10.436;2023-05-02T08:20:40;11.90;;;9.63;;
16963;SDS011;8598;50.508;10.436;2023-05-02T08:23:08;10.63;;;9.00;;
16963;SDS011;8598;50.508;10.436;2023-05-02T08:25:34;10.77;;;9.10;;
16963;SDS011;8598;50.508;10.436;2023-05-02T08:28:02;12.37;;;9.00;;
16963;SDS011;8598;50.508;10.436;2023-05-02T08:30:30;10.63;;;9.13;;
16963;SDS011;8598;50.508;10.436;2023-05-02T08:32:56;14.43;;;9.93;;
16963;SDS011;8598;50.508;10.436;2023-05-02T08:35:23;12.27;;;9.30;;
16963;SDS011;8598;50.508;10.436;2023-05-02T08:37:49;12.97;;;9.87;;
16963;SDS011;8598;50.508;10.436;2023-05-02T08:40:16;12.83;;;9.53;;
16963;SDS011;8598;50.508;10.436;2023-05-02T08:42:43;13.10;;;9.37;;
16963;SDS011;8598;50.508;10.436;2023-05-02T08:45:10;15.47;;;9.67;;
16963;SDS011;8598;50.508;10.436;2023-05-02T08:47:40;11.97;;;9.23;;
16963;SDS011;8598;50.508;10.436;2023-05-02T08:50:08;12.43;;;9.27;;
16963;SDS011;8598;50.508;10.436;2023-05-02T08:52:35;13.37;;;10.40;;
16963;SDS011;8598;50.508;10.436;2023-05-02T08:55:03;15.87;;;10.90;;
16963;SDS011;8598;50.508;10.436;2023-05-02T08:57:31;15.43;;;10.63;;
16963;SDS011;8598;50.508;10.436;2023-05-02T08:59:57;17.63;;;11.37;;
16963;SDS011;8598;50.508;10.436;2023-05-02T09:02:36;15.03;;;12.07;;
16963;SDS011;8598;50.508;10.436;2023-05-02T09:05:15;15.70;;;12.67;;
16963;SDS011;8598;50.508;10.436;2023-05-02T09:07:45;16.70;;;12.80;;
16963;SDS011;8598;50.508;10.436;2023-05-02T09:10:13;18.30;;;12.13;;
16963;SDS011;8598;50.508;10.436;2023-05-02T09:12:40;16.13;;;12.07;;
16963;SDS011;8598;50.508;10.436;2023-05-02T09:15:10;17.77;;;12.13;;
16963;SDS011;8598;50.508;10.436;2023-05-02T09:17:39;17.10;;;12.33;;
16963;SDS011;8598;50.508;10.436;2023-05-02T09:20:11;15.47;;;13.10;;
16963;SDS011;8598;50.508;10.436;2023-05-02T09:22:46;16.97;;;12.80;;
16963;SDS011;8598;50.508;10.436;2023-05-02T09:25:14;16.33;;;12.53;;
16963;SDS011;8598;50.508;10.436;2023-05-02T09:27:47;16.70;;;12.13;;
16963;SDS011;8598;50.508;10.436;2023-05-02T09:30:19;17.30;;;12.53;;
16963;SDS011;8598;50.508;10.436;2023-05-02T09:32:49;22.40;;;12.93;;
16963;SDS011;8598;50.508;10.436;2023-05-02T09:35:18;25.43;;;13.03;;
16963;SDS011;8598;50.508;10.436;2023-05-02T09:37:49;31.63;;;16.37;;
16963;SDS011;8598;50.508;10.436;2023-05-02T09:40:17;92.67;;;22.87;;
16963;SDS011;8598;50.508;10.436;2023-05-02T09:42:44;21.03;;;12.47;;
16963;SDS011;8598;50.508;10.436;2023-05-02T09:45:18;18.83;;;12.13;;
16963;SDS011;8598;50.508;10.436;2023-05-02T09:47:45;17.90;;;12.70;;
16963;SDS011;8598;50.508;10.436;2023-05-02T09:50:14;16.47;;;11.90;;
16963;SDS011;8598;50.508;10.436;2023-05-02T09:53:00;33.17;;;14.37;;
16963;SDS011;8598;50.508;10.436;2023-05-02T09:55:28;34.67;;;13.23;;
16963;SDS011;8598;50.508;10.436;2023-05-02T09:57:55;26.37;;;13.77;;
16963;SDS011;8598;50.508;10.436;2023-05-02T10:00:21;15.37;;;11.37;;
16963;SDS011;8598;50.508;10.436;2023-05-02T10:02:48;15.17;;;11.53;;
16963;SDS011;8598;50.508;10.436;2023-05-02T10:05:17;14.93;;;11.53;;
16963;SDS011;8598;50.508;10.436;2023-05-02T10:07:45;19.20;;;12.33;;
16963;SDS011;8598;50.508;10.436;2023-05-02T10:10:13;14.63;;;10.83;;
16963;SDS011;8598;50.508;10.436;2023-05-02T10:12:43;10.97;;;7.87;;
16963;SDS011;8598;50.508;10.436;2023-05-02T10:15:11;8.63;;;7.03;;
16963;SDS011;8598;50.508;10.436;2023-05-02T10:17:40;13.47;;;8.20;;
16963;SDS011;8598;50.508;10.436;2023-05-02T10:20:13;11.37;;;8.57;;
16963;SDS011;8598;50.508;10.436;2023-05-02T10:22:48;12.20;;;7.97;;
16963;SDS011;8598;50.508;10.436;2023-05-02T10:25:16;10.97;;;8.07;;
16963;SDS011;8598;50.508;10.436;2023-05-02T10:27:43;13.53;;;8.80;;
16963;SDS011;8598;50.508;10.436;2023-05-02T10:30:11;11.80;;;8.70;;
16963;SDS011;8598;50.508;10.436;2023-05-02T10:32:38;11.93;;;8.07;;
16963;SDS011;8598;50.508;10.436;2023-05-02T10:35:06;9.77;;;7.53;;
16963;SDS011;8598;50.508;10.436;2023-05-02T10:37:34;9.10;;;7.00;;
16963;SDS011;8598;50.508;10.436;2023-05-02T10:40:04;11.97;;;8.17;;
16963;SDS011;8598;50.508;10.436;2023-05-02T10:42:35;10.90;;;7.57;;
16963;SDS011;8598;50.508;10.436;2023-05-02T10:45:04;10.80;;;6.77;;
16963;SDS011;8598;50.508;10.436;2023-05-02T10:47:35;9.93;;;7.90;;
16963;SDS011;8598;50.508;10.436;2023-05-02T10:50:02;9.80;;;7.23;;
16963;SDS011;8598;50.508;10.436;2023-05-02T10:52:30;8.77;;;7.40;;
16963;SDS011;8598;50.508;10.436;2023-05-02T11:00:45;11.20;;;7.57;;
16963;SDS011;8598;50.508;10.436;2023-05-02T11:03:13;10.63;;;8.13;;
16963;SDS011;8598;50.508;10.436;2023-05-02T11:08:31;10.00;;;7.10;;
16963;SDS011;8598;50.508;10.436;2023-05-02T11:11:11;8.10;;;6.43;;
16963;SDS011;8598;50.508;10.436;2023-05-02T11:14:05;9.93;;;7.03;;
16963;SDS011;8598;50.508;10.436;2023-05-02T11:22:32;7.20;;;5.17;;
16963;SDS011;8598;50.508;10.436;2023-05-02T11:24:59;7.30;;;5.53;;
16963;SDS011;8598;50.508;10.436;2023-05-02T11:27:37;7.83;;;5.93;;
16963;SDS011;8598;50.508;10.436;2023-05-02T11:30:04;9.47;;;6.33;;
16963;SDS011;8598;50.508;10.436;2023-05-02T11:35:36;8.07;;;5.07;;
16963;SDS011;8598;50.508;10.436;2023-05-02T11:38:08;6.70;;;5.63;;
16963;SDS011;8598;50.508;10.436;2023-05-02T11:40:36;11.63;;;7.13;;
16963;SDS011;8598;50.508;10.436;2023-05-02T11:43:12;9.87;;;6.77;;
16963;SDS011;8598;50.508;10.436;2023-05-02T11:45:40;10.10;;;5.33;;
16963;SDS011;8598;50.508;10.436;2023-05-02T11:48:07;7.47;;;4.70;;
16963;SDS011;8598;50.508;10.436;2023-05-02T11:50:40;8.23;;;4.87;;
16963;SDS011;8598;50.508;10.436;2023-05-02T11:53:08;5.27;;;4.17;;
16963;SDS011;8598;50.508;10.436;2023-05-02T11:55:36;4.83;;;4.00;;
16963;SDS011;8598;50.508;10.436;2023-05-02T11:58:03;4.23;;;3.70;;
16963;SDS011;8598;50.508;10.436;2023-05-02T12:00:31;4.40;;;3.83;;
16963;SDS011;8598;50.508;10.436;2023-05-02T12:02:58;7.30;;;4.87;;
16963;SDS011;8598;50.508;10.436;2023-05-02T12:05:27;7.53;;;3.47;;
16963;SDS011;8598;50.508;10.436;2023-05-02T12:07:54;4.73;;;4.23;;
16963;SDS011;8598;50.508;10.436;2023-05-02T12:10:21;4.63;;;3.93;;
16963;SDS011;8598;50.508;10.436;2023-05-02T12:12:48;7.20;;;4.70;;
16963;SDS011;8598;50.508;10.436;2023-05-02T12:15:15;6.97;;;4.30;;
16963;SDS011;8598;50.508;10.436;2023-05-02T12:17:44;7.40;;;5.17;;
16963;SDS011;8598;50.508;10.436;2023-05-02T12:20:12;6.20;;;4.57;;
16963;SDS011;8598;50.508;10.436;2023-05-02T12:22:40;8.80;;;4.83;;
16963;SDS011;8598;50.508;10.436;2023-05-02T12:25:07;6.43;;;4.77;;
16963;SDS011;8598;50.508;10.436;2023-05-02T12:27:34;5.53;;;4.40;;
16963;SDS011;8598;50.508;10.436;2023-05-02T12:30:02;6.57;;;5.70;;
16963;SDS011;8598;50.508;10.436;2023-05-02T12:32:29;5.73;;;4.70;;
16963;SDS011;8598;50.508;10.436;2023-05-02T12:34:58;8.50;;;4.87;;
16963;SDS011;8598;50.508;10.436;2023-05-02T12:37:27;5.03;;;4.37;;
16963;SDS011;8598;50.508;10.436;2023-05-02T12:39:54;3.63;;;3.30;;
16963;SDS011;8598;50.508;10.436;2023-05-02T12:42:22;3.73;;;3.37;;
16963;SDS011;8598;50.508;10.436;2023-05-02T12:44:50;4.33;;;3.63;;
16963;SDS011;8598;50.508;10.436;2023-05-02T12:47:18;3.40;;;3.10;;
16963;SDS011;8598;50.508;10.436;2023-05-02T12:49:49;4.23;;;3.10;;
16963;SDS011;8598;50.508;10.436;2023-05-02T12:52:18;4.43;;;3.13;;
16963;SDS011;8598;50.508;10.436;2023-05-02T12:54:45;4.87;;;3.63;;
16963;SDS011;8598;50.508;10.436;2023-05-02T12:57:22;5.00;;;2.90;;
16963;SDS011;8598;50.508;10.436;2023-05-02T12:59:50;6.67;;;2.63;;
16963;SDS011;8598;50.508;10.436;2023-05-02T13:02:18;2.73;;;2.53;;
16963;SDS011;8598;50.508;10.436;2023-05-02T13:04:44;5.10;;;2.90;;
16963;SDS011;8598;50.508;10.436;2023-05-02T13:07:11;4.50;;;2.77;;
16963;SDS011;8598;50.508;10.436;2023-05-02T13:09:39;3.40;;;3.10;;
16963;SDS011;8598;50.508;10.436;2023-05-02T13:12:06;5.07;;;2.20;;
16963;SDS011;8598;50.508;10.436;2023-05-02T13:14:33;3.50;;;2.73;;
16963;SDS011;8598;50.508;10.436;2023-05-02T13:16:59;5.90;;;3.23;;
16963;SDS011;8598;50.508;10.436;2023-05-02T13:19:26;8.13;;;3.33;;
16963;SDS011;8598;50.508;10.436;2023-05-02T13:21:55;4.30;;;3.33;;
16963;SDS011;8598;50.508;10.436;2023-05-02T13:24:21;4.63;;;3.27;;
16963;SDS011;8598;50.508;10.436;2023-05-02T13:26:49;3.57;;;3.10;;
16963;SDS011;8598;50.508;10.436;2023-05-02T13:29:16;3.80;;;3.17;;
16963;SDS011;8598;50.508;10.436;2023-05-02T13:31:42;3.20;;;2.90;;
16963;SDS011;8598;50.508;10.436;2023-05-02T13:34:09;2.67;;;2.47;;
16963;SDS011;8598;50.508;10.436;2023-05-02T13:36:36;3.07;;;2.73;;
16963;SDS011;8598;50.508;10.436;2023-05-02T13:39:08;2.63;;;2.20;;
16963;SDS011;8598;50.508;10.436;2023-05-02T13:41:34;3.00;;;2.80;;
16963;SDS011;8598;50.508;10.436;2023-05-02T13:44:02;3.23;;;2.93;;
16963;SDS011;8598;50.508;10.436;2023-05-02T13:46:29;3.73;;;2.20;;
16963;SDS011;8598;50.508;10.436;2023-05-02T13:49:00;4.30;;;2.83;;
16963;SDS011;8598;50.508;10.436;2023-05-02T13:51:27;2.83;;;2.47;;
16963;SDS011;8598;50.508;10.436;2023-05-02T13:53:55;3.00;;;2.70;;
16963;SDS011;8598;50.508;10.436;2023-05-02T13:56:22;2.63;;;2.43;;
16963;SDS011;8598;50.508;10.436;2023-05-02T13:58:48;2.10;;;2.00;;
16963;SDS011;8598;50.508;10.436;2023-05-02T14:01:16;1.83;;;1.73;;
16963;SDS011;8598;50.508;10.436;2023-05-02T14:03:43;1.90;;;1.80;;
16963;SDS011;8598;50.508;10.436;2023-05-02T14:06:10;2.63;;;2.43;;
16963;SDS011;8598;50.508;10.436;2023-05-02T14:08:36;2.47;;;2.10;;
16963;SDS011;8598;50.508;10.436;2023-05-02T14:11:03;2.13;;;1.93;;
16963;SDS011;8598;50.508;10.436;2023-05-02T14:13:30;1.67;;;1.57;;
16963;SDS011;8598;50.508;10.436;2023-05-02T14:15:56;4.17;;;1.80;;
16963;SDS011;8598;50.508;10.436;2023-05-02T14:18:25;2.87;;;2.30;;
16963;SDS011;8598;50.508;10.436;2023-05-02T14:20:52;1.83;;;1.73;;
16963;SDS011;8598;50.508;10.436;2023-05-02T14:23:19;2.53;;;1.90;;
16963;SDS011;8598;50.508;10.436;2023-05-02T14:25:46;1.93;;;1.83;;
16963;SDS011;8598;50.508;10.436;2023-05-02T14:28:12;3.10;;;1.80;;
16963;SDS011;8598;50.508;10.436;2023-05-02T14:30:39;2.27;;;2.07;;
16963;SDS011;8598;50.508;10.436;2023-05-02T14:33:05;2.60;;;2.40;;
16963;SDS011;8598;50.508;10.436;2023-05-02T14:35:34;2.03;;;1.90;;
16963;SDS011;8598;50.508;10.436;2023-05-02T14:38:00;2.23;;;1.77;;
16963;SDS011;8598;50.508;10.436;2023-05-02T14:40:27;4.27;;;2.30;;
16963;SDS011;8598;50.508;10.436;2023-05-02T14:42:54;1.83;;;1.73;;
16963;SDS011;8598;50.508;10.436;2023-05-02T14:45:20;2.57;;;2.37;;
16963;SDS011;8598;50.508;10.436;2023-05-02T14:47:47;6.13;;;2.80;;
16963;SDS011;8598;50.508;10.436;2023-05-02T14:50:14;2.30;;;2.10;;
16963;SDS011;8598;50.508;10.436;2023-05-02T14:52:42;3.07;;;2.20;;
16963;SDS011;8598;50.508;10.436;2023-05-02T14:55:10;3.50;;;2.33;;
16963;SDS011;8598;50.508;10.436;2023-05-02T14:57:37;2.73;;;2.53;;
16963;SDS011;8598;50.508;10.436;2023-05-02T15:00:04;2.60;;;2.40;;
16963;SDS011;8598;50.508;10.436;2023-05-02T15:02:32;3.20;;;3.00;;